createdAt,value
2018-12-05T00:36:13.131Z,23.07
2018-12-05T01:27:55.978Z,28.30
2018-12-05T02:04:03.265Z,27.67
2018-12-05T04:29:37.657Z,26.83
2018-12-05T06:32:49.479Z,26.47
2018-12-05T07:01:53.432Z,25.10
2018-12-05T07:06:51.425Z,24.53
2018-12-05T07:11:52.937Z,25.83
2018-12-05T07:17:01.940Z,25.00
2018-12-05T07:22:03.293Z,33.27
2018-12-05T07:29:34.089Z,24.63
2018-12-05T07:32:03.777Z,28.60
2018-12-05T07:34:32.945Z,30.80
2018-12-05T07:39:36.683Z,25.20
2018-12-05T07:42:06.564Z,30.47
2018-12-05T07:47:04.296Z,24.23
2018-12-05T07:49:33.490Z,25.63
2018-12-05T07:52:02.811Z,25.93
2018-12-05T07:54:32.293Z,28.37
2018-12-05T07:57:01.799Z,21.80
2018-12-05T07:59:31.128Z,21.43
2018-12-05T08:02:00.576Z,23.00
2018-12-05T08:04:29.959Z,23.57
2018-12-05T08:06:59.571Z,24.87
2018-12-05T08:09:29.233Z,24.57
2018-12-05T08:11:58.694Z,24.13
2018-12-05T08:14:28.033Z,24.90
2018-12-05T08:16:57.458Z,24.13
2018-12-05T08:19:29.551Z,23.00
2018-12-05T08:21:59.002Z,21.20
2018-12-05T08:24:28.437Z,27.67
2018-12-05T08:26:57.643Z,27.53
2018-12-05T08:29:26.765Z,27.97
2018-12-05T08:31:55.968Z,31.07
2018-12-05T08:34:25.214Z,27.40
2018-12-05T08:36:54.825Z,26.70
2018-12-05T08:39:24.041Z,28.40
2018-12-05T08:41:53.202Z,22.07
2018-12-05T08:44:23.311Z,20.90
2018-12-05T08:46:52.528Z,23.23
2018-12-05T08:49:21.637Z,21.33
2018-12-05T08:51:50.859Z,23.97
2018-12-05T08:54:21.180Z,27.07
2018-12-05T08:56:50.625Z,30.93
2018-12-05T08:59:19.861Z,30.30
2018-12-05T09:01:49.170Z,28.70
2018-12-05T09:04:18.303Z,27.83
2018-12-05T09:06:47.500Z,27.67
2018-12-05T09:09:16.607Z,24.60
2018-12-05T09:11:46.268Z,30.67
2018-12-05T09:14:15.457Z,26.47
2018-12-05T09:16:44.652Z,27.73
2018-12-05T09:19:13.818Z,25.27
2018-12-05T09:21:42.997Z,27.23
2018-12-05T09:24:12.483Z,27.80
2018-12-05T09:26:41.939Z,31.47
2018-12-05T09:29:11.076Z,24.20
2018-12-05T09:31:40.640Z,25.20
2018-12-05T09:34:09.810Z,21.00
2018-12-05T09:36:39.017Z,26.50
2018-12-05T09:39:09.345Z,25.80
2018-12-05T09:41:38.541Z,23.70
2018-12-05T09:44:08.053Z,26.20
2018-12-05T09:46:37.216Z,25.63
2018-12-05T09:49:06.404Z,27.60
2018-12-05T09:51:35.527Z,24.73
2018-12-05T09:54:04.929Z,27.10
2018-12-05T09:56:34.453Z,26.23
2018-12-05T09:59:03.597Z,31.97
2018-12-05T10:01:32.797Z,26.03
2018-12-05T10:04:03.567Z,26.77
2018-12-05T10:06:32.629Z,28.10
2018-12-05T10:09:01.877Z,29.60
2018-12-05T10:11:31.380Z,26.30
2018-12-05T10:14:00.616Z,26.30
2018-12-05T10:16:29.813Z,29.30
2018-12-05T10:18:58.996Z,31.50
2018-12-05T10:21:28.484Z,27.10
2018-12-05T10:23:57.652Z,29.80
2018-12-05T10:26:26.728Z,27.97
2018-12-05T10:28:56.019Z,29.23
2018-12-05T10:31:25.239Z,29.17
2018-12-05T10:33:54.569Z,30.03
2018-12-05T10:36:23.970Z,34.53
2018-12-05T10:38:53.076Z,33.97
2018-12-05T10:41:22.562Z,27.50
2018-12-05T10:43:52.117Z,30.17
2018-12-05T10:46:21.245Z,31.20
2018-12-05T10:48:50.413Z,29.67
2018-12-05T10:51:20.615Z,29.97
2018-12-05T10:53:50.067Z,28.83
2018-12-05T10:56:19.236Z,24.17
2018-12-05T10:58:48.710Z,28.30
2018-12-05T11:01:35.304Z,27.27
2018-12-05T11:04:20.209Z,27.00
2018-12-05T11:07:06.641Z,30.63
2018-12-05T11:09:53.290Z,27.87
2018-12-05T11:12:50.393Z,24.10
2018-12-05T11:15:36.981Z,27.33
2018-12-05T11:18:23.921Z,27.13
2018-12-05T11:21:10.306Z,28.80
2018-12-05T11:23:57.613Z,27.80
2018-12-05T11:26:30.508Z,27.03
2018-12-05T11:29:03.425Z,25.67
2018-12-05T11:31:36.890Z,22.17
2018-12-05T11:34:08.039Z,32.03
2018-12-05T11:36:37.233Z,29.93
2018-12-05T11:39:08.281Z,30.27
2018-12-05T11:41:37.444Z,28.70
2018-12-05T11:44:06.626Z,32.03
2018-12-05T11:46:35.800Z,26.17
2018-12-05T11:49:04.910Z,28.03
2018-12-05T11:51:34.038Z,27.33
2018-12-05T11:54:03.584Z,32.03
2018-12-05T11:56:32.762Z,27.27
2018-12-05T11:59:01.923Z,27.40
2018-12-05T12:01:31.003Z,27.37
2018-12-05T12:04:00.129Z,28.47
2018-12-05T12:06:29.300Z,28.70
2018-12-05T12:08:58.557Z,27.43
2018-12-05T12:11:27.910Z,28.03
2018-12-05T12:13:57.062Z,25.20
2018-12-05T12:16:26.326Z,26.90
2018-12-05T12:18:55.497Z,27.03
2018-12-05T12:21:24.593Z,30.30
2018-12-05T12:23:53.685Z,25.07
2018-12-05T12:26:22.862Z,25.17
2018-12-05T12:28:52.017Z,24.90
2018-12-05T12:31:21.114Z,28.53
2018-12-05T12:33:50.573Z,26.83
2018-12-05T12:36:21.400Z,23.13
2018-12-05T12:38:51.643Z,23.67
2018-12-05T12:41:21.076Z,24.63
2018-12-05T12:43:50.224Z,21.90
2018-12-05T12:46:20.325Z,21.17
2018-12-05T12:48:49.497Z,21.13
2018-12-05T12:51:18.909Z,21.23
2018-12-05T12:53:48.288Z,21.23
2018-12-05T12:56:17.410Z,24.03
2018-12-05T12:58:46.870Z,20.57
2018-12-05T13:01:16.013Z,24.00
2018-12-05T13:03:45.453Z,21.27
2018-12-05T13:06:14.744Z,20.07
2018-12-05T13:08:43.926Z,21.73
2018-12-05T13:11:13.426Z,24.53
2018-12-05T13:13:42.667Z,25.10
2018-12-05T13:16:11.784Z,25.77
2018-12-05T13:18:41.121Z,24.00
2018-12-05T13:21:10.672Z,21.90
2018-12-05T13:23:39.909Z,23.70
2018-12-05T13:26:09.219Z,21.97
2018-12-05T13:28:38.559Z,23.60
2018-12-05T13:31:08.341Z,26.43
2018-12-05T13:33:37.512Z,20.90
2018-12-05T13:36:06.833Z,26.57
2018-12-05T13:38:36.045Z,27.70
2018-12-05T13:41:05.244Z,23.70
2018-12-05T13:43:34.815Z,27.10
2018-12-05T13:46:04.165Z,21.57
2018-12-05T13:48:35.212Z,25.70
2018-12-05T13:51:04.825Z,28.13
2018-12-05T13:53:34.002Z,22.03
2018-12-05T13:56:03.156Z,17.87
2018-12-05T13:58:32.358Z,20.40
2018-12-05T14:01:01.480Z,22.07
2018-12-05T14:03:30.556Z,25.60
2018-12-05T14:06:00.342Z,20.93
2018-12-05T14:08:29.579Z,19.23
2018-12-05T14:10:58.825Z,21.17
2018-12-05T14:13:27.958Z,20.20
2018-12-05T14:15:57.123Z,18.90
2018-12-05T14:18:26.269Z,22.70
2018-12-05T14:20:55.401Z,20.33
2018-12-05T14:23:24.530Z,23.57
2018-12-05T14:25:53.667Z,20.03
2018-12-05T14:28:22.949Z,20.57
2018-12-05T14:30:52.133Z,17.77
2018-12-05T14:33:21.622Z,26.10
2018-12-05T14:35:50.758Z,25.20
2018-12-05T14:38:20.281Z,20.20
2018-12-05T14:40:49.866Z,20.03
2018-12-05T14:43:19.113Z,15.93
2018-12-05T14:45:48.474Z,18.43
2018-12-05T14:48:17.593Z,19.80
2018-12-05T14:50:46.807Z,15.87
2018-12-05T14:53:15.925Z,15.83
2018-12-05T14:55:45.049Z,22.53
2018-12-05T14:58:14.197Z,14.27
2018-12-05T15:00:43.337Z,19.90
2018-12-05T15:03:13.010Z,15.87
2018-12-05T15:05:42.111Z,18.70
2018-12-05T15:08:11.222Z,15.47
2018-12-05T15:10:40.408Z,14.00
2018-12-05T15:13:09.529Z,18.10
2018-12-05T15:15:38.657Z,16.07
2018-12-05T15:18:08.083Z,15.67
2018-12-05T15:20:37.206Z,17.90
2018-12-05T15:23:06.628Z,18.20
2018-12-05T15:25:35.906Z,19.23
2018-12-05T15:28:05.425Z,16.67
2018-12-05T15:30:34.654Z,19.47
2018-12-05T15:33:03.836Z,20.97
2018-12-05T15:35:33.499Z,19.70
2018-12-05T15:38:02.956Z,18.63
2018-12-05T15:40:32.106Z,17.30
2018-12-05T15:43:01.252Z,14.63
2018-12-05T15:45:30.420Z,19.47
2018-12-05T15:47:59.832Z,18.07
2018-12-05T15:50:29.341Z,16.60
2018-12-05T15:52:58.527Z,18.20
2018-12-05T15:55:27.784Z,14.83
2018-12-05T15:57:57.108Z,14.40
2018-12-05T16:00:28.134Z,16.17
2018-12-05T16:02:57.392Z,16.97
2018-12-05T16:18:13.258Z,18.13
2018-12-05T16:23:23.194Z,16.37
2018-12-05T16:25:52.956Z,20.83
2018-12-05T16:33:29.160Z,17.83
2018-12-05T16:43:35.657Z,18.23
2018-12-05T16:46:04.011Z,20.83
2018-12-05T16:51:03.086Z,14.37
2018-12-05T17:03:47.176Z,19.30
2018-12-05T17:06:16.949Z,16.07
2018-12-05T17:18:51.861Z,19.63
2018-12-05T17:26:27.440Z,17.53
2018-12-05T17:34:05.084Z,19.43
2018-12-05T17:39:11.526Z,19.70
2018-12-05T17:41:41.066Z,23.10
2018-12-05T17:57:13.074Z,20.43
2018-12-05T18:07:34.948Z,17.83
2018-12-05T18:33:31.578Z,17.63
2018-12-05T18:38:34.004Z,16.10
2018-12-05T18:53:55.424Z,24.00
2018-12-05T19:01:34.945Z,20.53
2018-12-05T19:09:11.385Z,22.10
2018-12-05T19:16:52.237Z,21.50
2018-12-05T19:26:59.809Z,21.93
2018-12-05T19:37:37.465Z,20.23
2018-12-05T20:04:23.096Z,25.10
2018-12-05T20:17:31.634Z,30.60
2018-12-05T20:25:16.501Z,26.83
2018-12-05T20:28:03.348Z,29.37
2018-12-05T21:00:05.818Z,20.00
2018-12-05T21:02:35.931Z,20.33
2018-12-05T21:17:49.202Z,21.53
2018-12-05T21:25:28.984Z,24.03
2018-12-05T21:48:53.701Z,19.17
2018-12-05T21:59:02.438Z,19.77
2018-12-05T22:06:46.124Z,17.57
2018-12-05T22:14:27.201Z,16.17
2018-12-05T22:32:31.697Z,20.10
2018-12-05T22:45:16.239Z,18.43
2018-12-05T22:47:45.886Z,20.70
2018-12-05T22:50:15.860Z,16.80
2018-12-05T22:52:45.988Z,17.83
2018-12-05T23:05:36.173Z,20.20
2018-12-05T23:10:47.412Z,23.30
2018-12-05T23:23:55.843Z,19.93
2018-12-05T23:34:07.577Z,20.43
2018-12-05T23:39:06.343Z,20.60
2018-12-05T23:44:04.263Z,20.67
2018-12-05T23:51:48.052Z,27.07
2018-12-05T23:54:17.723Z,22.63
